Time;durP1;ratioP1;P1;durP2;ratioP2;P2;SDS_P1;SDS_P2;PMS_P1;PMS_P2;Temp;Humidity;BMP_temperature;BMP_pressure;BME280_temperature;BME280_humidity;BME280_pressure;Samples;Min_cycle;Max_cycle;Signal;HPM_P1;HPM_P2
2021/11/25 00:01:00;;;;;;;;;;;;;;;;;;5055710;28;19944;-73
2021/11/25 00:03:25;;;;;;;;;;;;;;;;;;5054383;28;19921;-74
2021/11/25 00:05:51;;;;;;;;;;;;;;;;;;5055426;28;19913;-74
2021/11/25 00:08:17;;;;;;;;;;;;;;;;;;5055449;28;19908;-73
2021/11/25 00:10:43;;;;;;;;;;;;;;;;;;5055384;28;19920;-73
2021/11/25 00:13:08;;;;;;;;;;;;;;;;;;5055261;28;20267;-73
2021/11/25 00:15:34;;;;;;;;;;;;;;;;;;5054815;28;19912;-74
2021/11/25 00:17:59;;;;;;;;;;;;;;;;;;5054283;28;19986;-73
2021/11/25 00:20:24;;;;;;;;;;;;;;;;;;5055415;28;19913;-74
2021/11/25 00:22:50;;;;;;;;;;;;;;;;;;5055351;28;20305;-74
2021/11/25 00:25:15;;;;;;;;;;;;;;;;;;5055213;28;19936;-74
2021/11/25 00:27:41;;;;;;;;;;;;;;;;;;5055335;28;20408;-74
2021/11/25 00:30:07;;;;;;;;;;;;;;;;;;5055088;28;19959;-73
2021/11/25 00:32:32;;;;;;;;;;;;;;;;;;5055125;28;19913;-73
2021/11/25 00:34:58;;;;;;;;;;;;;;;;;;5055038;28;19913;-74
2021/11/25 00:37:23;;;;;;;;;;;;;;;;;;5055165;28;19919;-74
2021/11/25 00:39:48;;;;;;;;;;;;;;;;;;5055026;28;19923;-74
2021/11/25 00:42:14;;;;;;;;;;;;;;;;;;5054849;28;20064;-73
2021/11/25 00:44:39;;;;;;;;;;;;;;;;;;5054531;28;20031;-74
2021/11/25 00:47:04;;;;;;;;;;;;;;;;;;5054852;28;19912;-74
2021/11/25 00:49:29;;;;;;;;;;;;;;;;;;5053883;28;20351;-73
2021/11/25 00:51:55;;;;;;;;;;;;;;;;;;5054804;28;19935;-73
2021/11/25 00:54:20;;;;;;;;;;;;;;;;;;5054606;28;19919;-74
2021/11/25 00:56:45;;;;;;;;;;;;;;;;;;5052280;28;19919;-73
2021/11/25 00:59:11;;;;;;;;;;;;;;;;;;5054496;28;19917;-74
2021/11/25 01:01:36;;;;;;;;;;;;;;;;;;5054863;28;19935;-74
2021/11/25 01:04:01;;;;;;;;;;;;;;;;;;5054212;28;19925;-74
2021/11/25 01:06:27;;;;;;;;;;;;;;;;;;5053348;28;19912;-74
2021/11/25 01:08:52;;;;;;;;;;;;;;;;;;5054489;28;19912;-74
2021/11/25 01:11:21;;;;;;;;;;;;;;;;;;5054515;28;19913;-74
2021/11/25 01:13:46;;;;;;;;;;;;;;;;;;5053259;28;19962;-73
2021/11/25 01:16:12;;;;;;;;;;;;;;;;;;5052972;28;19917;-74
2021/11/25 01:18:37;;;;;;;;;;;;;;;;;;5053284;28;19948;-74
2021/11/25 01:21:02;;;;;;;;;;;;;;;;;;5054438;28;20436;-74
2021/11/25 01:23:29;;;;;;;;;;;;;;;;;;5054188;28;19962;-73
2021/11/25 01:25:55;;;;;;;;;;;;;;;;;;5053580;28;20278;-74
2021/11/25 01:28:21;;;;;;;;;;;;;;;;;;5036182;28;19940;-74
2021/11/25 01:30:47;;;;;;;;;;;;;;;;;;5053740;28;19912;-73
2021/11/25 01:33:13;;;;;;;;;;;;;;;;;;5053194;28;19928;-73
2021/11/25 01:35:39;;;;;;;;;;;;;;;;;;5054119;28;19912;-73
2021/11/25 01:38:06;;;;;;;;;;;;;;;;;;5053971;28;20289;-73
2021/11/25 01:40:31;;;;;;;;;;;;;;;;;;5053974;28;19912;-73
2021/11/25 01:42:57;;;;;;;;;;;;;;;;;;5053874;28;19958;-74
2021/11/25 01:45:25;;;;;;;;;;;;;;;;;;5053787;28;19981;-74
2021/11/25 01:47:50;;;;;;;;;;;;;;;;;;5053932;28;20355;-74
2021/11/25 01:50:16;;;;;;;;;;;;;;;;;;5053790;28;19966;-74
2021/11/25 01:52:41;;;;;;;;;;;;;;;;;;5052598;28;19912;-73
2021/11/25 01:55:07;;;;;;;;;;;;;;;;;;5052215;28;19963;-74
2021/11/25 01:57:32;;;;;;;;;;;;;;;;;;5053129;28;19951;-73
2021/11/25 01:59:58;;;;;;;;;;;;;;;;;;5052573;28;20377;-74
2021/11/25 02:02:23;;;;;;;;;;;;;;;;;;5053519;28;19948;-74
2021/11/25 02:04:49;;;;;;;;;;;;;;;;;;5051352;28;19928;-73
2021/11/25 02:07:14;;;;;;;;;;;;;;;;;;5053642;28;19913;-74
2021/11/25 02:09:39;;;;;;;;;;;;;;;;;;5052325;28;19912;-73
2021/11/25 02:12:05;;;;;;;;;;;;;;;;;;5053732;28;19913;-74
2021/11/25 02:14:30;;;;;;;;;;;;;;;;;;5053358;28;19925;-73
2021/11/25 02:16:56;;;;;;;;;;;;;;;;;;5053568;28;19919;-73
2021/11/25 02:19:22;;;;;;;;;;;;;;;;;;5053493;28;19913;-73
2021/11/25 02:21:48;;;;;;;;;;;;;;;;;;5053360;28;19913;-74
2021/11/25 02:24:13;;;;;;;;;;;;;;;;;;5052190;28;20293;-74
2021/11/25 02:26:39;;;;;;;;;;;;;;;;;;5053388;28;19922;-73
2021/11/25 02:29:04;;;;;;;;;;;;;;;;;;5053659;28;19917;-74
2021/11/25 02:31:29;;;;;;;;;;;;;;;;;;5053279;28;19966;-73
2021/11/25 02:33:55;;;;;;;;;;;;;;;;;;5053478;28;19919;-73
2021/11/25 02:36:20;;;;;;;;;;;;;;;;;;5053170;28;20366;-73
2021/11/25 02:38:46;;;;;;;;;;;;;;;;;;5055218;28;19920;-74
2021/11/25 02:41:11;;;;;;;;;;;;;;;;;;5057314;28;20016;-74
2021/11/25 02:43:36;;;;;;;;;;;;;;;;;;5056861;28;19986;-73
2021/11/25 02:46:02;;;;;;;;;;;;;;;;;;5057038;28;19924;-73
2021/11/25 02:48:29;;;;;;;;;;;;;;;;;;5056558;28;20282;-73
2021/11/25 02:50:55;;;;;;;;;;;;;;;;;;5057180;28;20046;-73
2021/11/25 02:53:22;;;;;;;;;;;;;;;;;;5057000;28;19995;-73
2021/11/25 02:55:47;;;;;;;;;;;;;;;;;;5057066;28;19912;-73
2021/11/25 02:58:13;;;;;;;;;;;;;;;;;;5055956;28;19999;-73
2021/11/25 03:00:40;;;;;;;;;;;;;;;;;;5056875;28;19913;-73
2021/11/25 03:03:07;;;;;;;;;;;;;;;;;;5056320;28;19919;-73
2021/11/25 03:05:33;;;;;;;;;;;;;;;;;;5056611;28;20023;-73
2021/11/25 03:08:02;;;;;;;;;;;;;;;;;;5056965;28;19952;-73
2021/11/25 03:10:28;;;;;;;;;;;;;;;;;;5056566;28;19913;-73
2021/11/25 03:12:54;;;;;;;;;;;;;;;;;;5056265;28;19949;-73
2021/11/25 03:15:19;;;;;;;;;;;;;;;;;;5055905;28;20366;-74
2021/11/25 03:17:44;;;;;;;;;;;;;;;;;;5056441;28;19920;-74
2021/11/25 03:20:11;;;;;;;;;;;;;;;;;;5055825;28;19965;-74
2021/11/25 03:22:36;;;;;;;;;;;;;;;;;;5056501;28;20011;-74
2021/11/25 03:25:01;;;;;;;;;;;;;;;;;;5056100;28;20051;-73
2021/11/25 03:27:27;;;;;;;;;;;;;;;;;;5056214;28;20282;-73
2021/11/25 03:29:52;;;;;;;;;;;;;;;;;;5056228;28;20017;-73
2021/11/25 03:32:17;;;;;;;;;;;;;;;;;;5056072;28;19913;-73
2021/11/25 03:34:42;;;;;;;;;;;;;;;;;;5055029;28;19913;-73
2021/11/25 03:37:08;;;;;;;;;;;;;;;;;;5056454;28;19913;-73
2021/11/25 03:39:33;;;;;;;;;;;;;;;;;;5055191;28;19909;-73
2021/11/25 03:41:59;;;;;;;;;;;;;;;;;;5056152;28;20011;-74
2021/11/25 03:44:24;;;;;;;;;;;;;;;;;;5055525;28;19960;-74
2021/11/25 03:46:50;;;;;;;;;;;;;;;;;;5056127;28;19916;-73
2021/11/25 03:49:15;;;;;;;;;;;;;;;;;;5054752;28;19963;-73
2021/11/25 03:51:40;;;;;;;;;;;;;;;;;;5056066;28;19966;-76
2021/11/25 03:54:06;;;;;;;;;;;;;;;;;;5055610;28;19913;-76
2021/11/25 03:56:31;;;;;;;;;;;;;;;;;;5055394;28;20397;-73
2021/11/25 03:58:56;;;;;;;;;;;;;;;;;;5055008;28;19999;-73
2021/11/25 04:01:23;;;;;;;;;;;;;;;;;;5055427;28;19912;-74
2021/11/25 04:03:48;;;;;;;;;;;;;;;;;;5054679;28;19917;-72
2021/11/25 04:06:14;;;;;;;;;;;;;;;;;;5055368;28;19912;-72
2021/11/25 04:08:39;;;;;;;;;;;;;;;;;;5054667;28;20014;-72
2021/11/25 04:11:06;;;;;;;;;;;;;;;;;;5054584;28;20291;-73
2021/11/25 04:13:31;;;;;;;;;;;;;;;;;;5055259;28;20327;-72
2021/11/25 04:15:57;;;;;;;;;;;;;;;;;;5054239;28;20049;-72
2021/11/25 04:18:22;;;;;;;;;;;;;;;;;;5055123;28;20259;-72
2021/11/25 04:20:47;;;;;;;;;;;;;;;;;;5055042;28;19912;-72
2021/11/25 04:23:13;;;;;;;;;;;;;;;;;;5055372;28;19917;-72
2021/11/25 04:25:39;;;;;;;;;;;;;;;;;;5054225;28;19936;-72
2021/11/25 04:28:05;;;;;;;;;;;;;;;;;;5054955;28;19913;-72
2021/11/25 04:35:49;;;;;;;;;;;;;;;;;;5055090;28;19912;-72
2021/11/25 04:38:16;;;;;;;;;;;;;;;;;;5054028;28;19919;-72
2021/11/25 04:40:43;;;;;;;;;;;;;;;;;;5054827;28;19955;-73
2021/11/25 04:43:09;;;;;;;;;;;;;;;;;;5055103;28;19913;-72
2021/11/25 04:45:36;;;;;;;;;;;;;;;;;;5054813;28;19916;-72
2021/11/25 04:48:01;;;;;;;;;;;;;;;;;;5053778;28;19913;-72
2021/11/25 04:50:27;;;;;;;;;;;;;;;;;;5053601;28;19920;-72
2021/11/25 04:52:52;;;;;;;;;;;;;;;;;;5054909;28;20255;-72
2021/11/25 04:55:18;;;;;;;;;;;;;;;;;;5052305;28;19917;-72
2021/11/25 04:57:44;;;;;;;;;;;;;;;;;;5054876;28;19935;-73
2021/11/25 05:00:10;;;;;;;;;;;;;;;;;;5054230;28;19962;-73
2021/11/25 05:02:35;;;;;;;;;;;;;;;;;;5053522;28;19913;-73
2021/11/25 05:05:01;;;;;;;;;;;;;;;;;;5054334;28;20270;-73
2021/11/25 05:07:26;;;;;;;;;;;;;;;;;;5053568;28;20274;-72
2021/11/25 05:09:52;;;;;;;;;;;;;;;;;;5054379;28;19923;-73
2021/11/25 05:12:17;;;;;;;;;;;;;;;;;;5053302;28;20050;-72
2021/11/25 05:14:42;;;;;;;;;;;;;;;;;;5054417;28;19913;-72
2021/11/25 05:17:08;;;;;;;;;;;;;;;;;;5054474;28;19951;-72
2021/11/25 05:19:34;;;;;;;;;;;;;;;;;;5054375;28;19912;-72
2021/11/25 05:21:59;;;;;;;;;;;;;;;;;;5054431;28;20356;-72
2021/11/25 05:24:24;;;;;;;;;;;;;;;;;;5054021;28;19943;-72
2021/11/25 05:26:50;;;;;;;;;;;;;;;;;;5053487;28;20278;-73
2021/11/25 05:29:17;;;;;;;;;;;;;;;;;;5054255;28;19959;-73
2021/11/25 05:31:42;;;;;;;;;;;;;;;;;;5054160;28;19917;-73
2021/11/25 05:34:08;;;;;;;;;;;;;;;;;;5052928;28;19967;-72
2021/11/25 05:36:33;;;;;;;;;;;;;;;;;;5053782;28;19966;-73
2021/11/25 05:38:59;;;;;;;;;;;;;;;;;;5053096;28;19917;-72
2021/11/25 05:41:24;;;;;;;;;;;;;;;;;;5053667;28;19999;-73
2021/11/25 05:43:49;;;;;;;;;;;;;;;;;;5053552;28;20374;-73
2021/11/25 05:46:15;;;;;;;;;;;;;;;;;;5052559;28;19924;-73
2021/11/25 05:48:40;;;;;;;;;;;;;;;;;;5053043;28;19913;-72
2021/11/25 05:51:05;;;;;;;;;;;;;;;;;;5051954;28;20483;-73
2021/11/25 05:53:31;;;;;;;;;;;;;;;;;;5053381;28;20007;-72
2021/11/25 05:55:56;;;;;;;;;;;;;;;;;;5053820;28;19938;-72
2021/11/25 05:58:21;;;;;;;;;;;;;;;;;;5052980;28;19919;-73
2021/11/25 06:00:47;;;;;;;;;;;;;;;;;;5053500;28;20003;-72
2021/11/25 06:03:13;;;;;;;;;;;;;;;;;;5051987;28;20011;-72
2021/11/25 06:05:39;;;;;;;;;;;;;;;;;;5052846;28;19917;-73
2021/11/25 06:08:04;;;;;;;;;;;;;;;;;;5053584;28;19920;-72
2021/11/25 06:10:30;;;;;;;;;;;;;;;;;;5053522;28;19912;-73
2021/11/25 06:12:56;;;;;;;;;;;;;;;;;;5056999;28;19944;-73
2021/11/25 06:15:21;;;;;;;;;;;;;;;;;;5058787;28;19958;-72
2021/11/25 06:17:47;;;;;;;;;;;;;;;;;;5059720;28;19912;-72
2021/11/25 06:20:13;;;;;;;;;;;;;;;;;;5059245;28;19918;-73
2021/11/25 06:22:40;;;;;;;;;;;;;;;;;;5060077;28;20010;-73
2021/11/25 06:25:06;;;;;;;;;;;;;;;;;;5059971;28;19917;-73
2021/11/25 06:27:31;;;;;;;;;;;;;;;;;;5060124;28;20277;-72
2021/11/25 06:29:56;;;;;;;;;;;;;;;;;;5060066;28;19913;-72
2021/11/25 06:32:21;;;;;;;;;;;;;;;;;;5059321;28;19913;-73
2021/11/25 06:34:47;;;;;;;;;;;;;;;;;;5059665;28;19928;-73
2021/11/25 06:37:12;;;;;;;;;;;;;;;;;;5059852;28;19978;-73
2021/11/25 06:39:37;;;;;;;;;;;;;;;;;;5059285;28;19991;-72
2021/11/25 06:42:03;;;;;;;;;;;;;;;;;;5060459;28;19958;-73
2021/11/25 06:44:28;;;;;;;;;;;;;;;;;;5059403;28;19991;-73
2021/11/25 06:46:53;;;;;;;;;;;;;;;;;;5059447;28;19916;-72
2021/11/25 06:49:19;;;;;;;;;;;;;;;;;;5059574;28;19917;-72
2021/11/25 06:51:44;;;;;;;;;;;;;;;;;;5058877;28;19912;-72
2021/11/25 06:54:09;;;;;;;;;;;;;;;;;;5059548;28;19931;-72
2021/11/25 06:56:35;;;;;;;;;;;;;;;;;;5059968;28;19912;-72
2021/11/25 06:59:00;;;;;;;;;;;;;;;;;;5059085;28;20303;-72
2021/11/25 07:01:25;;;;;;;;;;;;;;;;;;5059983;28;19919;-72
2021/11/25 07:03:51;;;;;;;;;;;;;;;;;;5059738;28;19923;-72
2021/11/25 07:06:16;;;;;;;;;;;;;;;;;;5059766;28;19908;-72
2021/11/25 07:08:41;;;;;;;;;;;;;;;;;;5059769;28;20008;-72
2021/11/25 07:11:07;;;;;;;;;;;;;;;;;;5058625;28;19912;-72
2021/11/25 07:13:32;;;;;;;;;;;;;;;;;;5058834;28;19913;-72
2021/11/25 07:15:57;;;;;;;;;;;;;;;;;;5059812;28;19919;-72
2021/11/25 07:18:23;;;;;;;;;;;;;;;;;;5057437;28;19912;-73
2021/11/25 07:20:48;;;;;;;;;;;;;;;;;;5059649;28;20358;-72
2021/11/25 07:23:14;;;;;;;;;;;;;;;;;;5059408;28;19916;-72
2021/11/25 07:25:40;;;;;;;;;;;;;;;;;;5055549;28;20058;-72
2021/11/25 07:28:05;;;;;;;;;;;;;;;;;;5056601;28;19913;-75
2021/11/25 07:30:31;;;;;;;;;;;;;;;;;;5055657;28;20342;-74
2021/11/25 07:32:57;;;;;;;;;;;;;;;;;;5056343;28;19912;-74
2021/11/25 07:35:23;;;;;;;;;;;;;;;;;;5056314;28;19913;-74
2021/11/25 07:37:52;;;;;;;;;;;;;;;;;;5056250;28;20385;-73
2021/11/25 07:40:18;;;;;;;;;;;;;;;;;;5056389;28;20011;-75
2021/11/25 07:42:43;;;;;;;;;;;;;;;;;;5056087;28;19944;-75
2021/11/25 07:45:08;;;;;;;;;;;;;;;;;;5055857;28;20406;-76
2021/11/25 07:47:34;;;;;;;;;;;;;;;;;;5056029;28;19995;-76
2021/11/25 07:50:07;;;;;;;;;;;;;;;;;;5055053;28;19916;-75
2021/11/25 07:52:33;;;;;;;;;;;;;;;;;;5056014;28;19916;-74
2021/11/25 07:54:58;;;;;;;;;;;;;;;;;;5054897;28;19917;-74
2021/11/25 07:57:23;;;;;;;;;;;;;;;;;;5054509;28;19952;-75
2021/11/25 07:59:49;;;;;;;;;;;;;;;;;;5056050;28;19917;-74
2021/11/25 08:02:17;;;;;;;;;;;;;;;;;;5056391;28;20453;-75
2021/11/25 08:04:43;;;;;;;;;;;;;;;;;;5056545;28;19964;-74
2021/11/25 08:07:08;;;;;;;;;;;;;;;;;;5055424;28;20282;-76
2021/11/25 08:09:33;;;;;;;;;;;;;;;;;;5056098;28;20019;-76
2021/11/25 08:11:59;;;;;;;;;;;;;;;;;;5055922;28;19975;-75
2021/11/25 08:14:24;;;;;;;;;;;;;;;;;;5056775;28;19956;-75
2021/11/25 08:16:49;;;;;;;;;;;;;;;;;;5055627;28;20558;-76
2021/11/25 08:19:15;;;;;;;;;;;;;;;;;;5055313;28;19920;-76
2021/11/25 08:21:40;;;;;;;;;;;;;;;;;;5055106;28;20425;-76
2021/11/25 08:24:05;;;;;;;;;;;;;;;;;;5053035;28;19962;-76
2021/11/25 08:26:31;;;;;;;;;;;;;;;;;;5055558;28;19913;-75
2021/11/25 08:28:56;;;;;;;;;;;;;;;;;;5055687;28;19912;-75
2021/11/25 08:31:21;;;;;;;;;;;;;;;;;;5055937;28;19912;-75
2021/11/25 08:33:47;;;;;;;;;;;;;;;;;;5055097;28;19966;-76
2021/11/25 08:36:12;;;;;;;;;;;;;;;;;;5055338;28;20023;-73
2021/11/25 08:38:38;;;;;;;;;;;;;;;;;;5058877;28;19916;-73
2021/11/25 08:41:03;;;;;;;;;;;;;;;;;;5075728;28;19966;-74
2021/11/25 08:43:28;;;;;;;;;;;;;;;;;;5075801;28;20369;-75
2021/11/25 08:45:54;;;;;;;;;;;;;;;;;;5059140;28;20011;-74
2021/11/25 08:48:19;;;;;;;;;;;;;;;;;;5055920;28;19923;-77
2021/11/25 08:50:44;;;;;;;;;;;;;;;;;;5055032;28;19912;-76
2021/11/25 08:53:11;;;;;;;;;;;;;;;;;;5054893;28;19912;-76
2021/11/25 08:55:36;;;;;;;;;;;;;;;;;;5054608;28;19912;-75
2021/11/25 08:58:02;;;;;;;;;;;;;;;;;;5053262;28;19935;-75
2021/11/25 09:00:28;;;;;;;;;;;;;;;;;;5054272;28;19912;-75
2021/11/25 09:02:53;;;;;;;;;;;;;;;;;;5054677;28;20012;-74
2021/11/25 09:05:19;;;;;;;;;;;;;;;;;;5054108;28;19917;-74
2021/11/25 09:07:44;;;;;;;;;;;;;;;;;;5054180;28;19966;-74
2021/11/25 09:10:10;;;;;;;;;;;;;;;;;;5054357;28;19916;-75
2021/11/25 09:12:35;;;;;;;;;;;;;;;;;;5049671;28;19913;-77
2021/11/25 09:15:01;;;;;;;;;;;;;;;;;;5048293;28;19912;-77
2021/11/25 09:17:26;;;;;;;;;;;;;;;;;;5056485;28;19917;-77
2021/11/25 09:19:51;;;;;;;;;;;;;;;;;;5054307;28;19923;-76
2021/11/25 09:22:17;;;;;;;;;;;;;;;;;;5054125;28;19959;-76
2021/11/25 09:24:42;;;;;;;;;;;;;;;;;;5053065;28;20325;-76
2021/11/25 09:27:08;;;;;;;;;;;;;;;;;;5054054;28;19963;-76
2021/11/25 09:29:33;;;;;;;;;;;;;;;;;;5054279;28;19959;-76
2021/11/25 09:31:59;;;;;;;;;;;;;;;;;;5054315;28;19919;-75
2021/11/25 09:34:24;;;;;;;;;;;;;;;;;;5054124;28;19920;-76
2021/11/25 09:36:49;;;;;;;;;;;;;;;;;;5054107;28;19916;-75
2021/11/25 09:39:15;;;;;;;;;;;;;;;;;;5054313;28;19928;-76
2021/11/25 09:41:40;;;;;;;;;;;;;;;;;;5042017;28;20280;-75
2021/11/25 09:44:06;;;;;;;;;;;;;;;;;;5033658;28;19917;-76
2021/11/25 09:46:33;;;;;;;;;;;;;;;;;;5039123;28;19917;-77
2021/11/25 09:48:58;;;;;;;;;;;;;;;;;;5046405;28;19917;-78
2021/11/25 09:51:25;;;;;;;;;;;;;;;;;;5055610;28;19920;-78
2021/11/25 09:53:51;;;;;;;;;;;;;;;;;;5065098;28;20485;-78
2021/11/25 09:56:16;;;;;;;;;;;;;;;;;;5065267;28;20402;-78
2021/11/25 09:58:41;;;;;;;;;;;;;;;;;;5065941;28;19999;-78
2021/11/25 10:01:10;;;;;;;;;;;;;;;;;;5064329;28;19912;-77
2021/11/25 10:03:37;;;;;;;;;;;;;;;;;;5061983;28;20363;-78
2021/11/25 10:06:03;;;;;;;;;;;;;;;;;;5056749;28;19940;-78
2021/11/25 10:08:34;;;;;;;;;;;;;;;;;;5057030;28;20192;-78
2021/11/25 10:11:16;;;;;;;;;;;;;;;;;;5057722;28;19962;-77
2021/11/25 10:13:45;;;;;;;;;;;;;;;;;;5057111;28;20019;-78
2021/11/25 10:16:13;;;;;;;;;;;;;;;;;;5058737;28;20432;-77
2021/11/25 10:18:39;;;;;;;;;;;;;;;;;;5047823;28;19905;-76
2021/11/25 10:21:09;;;;;;;;;;;;;;;;;;5033219;28;20437;-75
2021/11/25 10:23:35;;;;;;;;;;;;;;;;;;5033585;28;19913;-76
2021/11/25 10:26:04;;;;;;;;;;;;;;;;;;5032674;28;19917;-77
2021/11/25 10:28:40;;;;;;;;;;;;;;;;;;5036073;28;20165;-77
2021/11/25 10:31:07;;;;;;;;;;;;;;;;;;5042145;28;19919;-77
2021/11/25 10:33:45;;;;;;;;;;;;;;;;;;5057567;28;20000;-77
2021/11/25 10:41:22;;;;;;;;;;;;;;;;;;5061921;28;19936;-77
2021/11/25 10:44:22;;;;;;;;;;;;;;;;;;5061062;28;19917;-77
2021/11/25 10:46:55;;;;;;;;;;;;;;;;;;5026678;28;19917;-76
2021/11/25 10:49:40;;;;;;;;;;;;;;;;;;5052903;28;19919;-71
2021/11/25 10:52:24;;;;;;;;;;;;;;;;;;5053265;28;19912;-72
2021/11/25 10:54:51;;;;;;;;;;;;;;;;;;5053178;28;19982;-72
2021/11/25 10:57:17;;;;;;;;;;;;;;;;;;5052533;28;19920;-72
2021/11/25 10:59:45;;;;;;;;;;;;;;;;;;5055848;28;19936;-73
2021/11/25 11:02:18;;;;;;;;;;;;;;;;;;5057078;28;19916;-73
2021/11/25 11:04:44;;;;;;;;;;;;;;;;;;5056431;28;19917;-73
2021/11/25 11:07:26;;;;;;;;;;;;;;;;;;5053358;28;19943;-73
2021/11/25 11:09:52;;;;;;;;;;;;;;;;;;5056574;28;19913;-72
2021/11/25 11:12:48;;;;;;;;;;;;;;;;;;5055800;28;19912;-73
2021/11/25 11:20:49;;;;;;;;;;;;;;;;;;5055532;28;19916;-73
2021/11/25 11:23:16;;;;;;;;;;;;;;;;;;5056485;28;20449;-73
2021/11/25 11:25:42;;;;;;;;;;;;;;;;;;5056396;28;19959;-74
2021/11/25 11:28:08;;;;;;;;;;;;;;;;;;5056611;28;19920;-75
2021/11/25 11:30:36;;;;;;;;;;;;;;;;;;5057102;28;20286;-76
2021/11/25 11:33:06;;;;;;;;;;;;;;;;;;5056513;28;19939;-78
2021/11/25 11:35:31;;;;;;;;;;;;;;;;;;5057036;28;20023;-77
2021/11/25 11:37:58;;;;;;;;;;;;;;;;;;5056685;28;20015;-77
2021/11/25 11:40:25;;;;;;;;;;;;;;;;;;5056575;28;19919;-77
2021/11/25 11:42:52;;;;;;;;;;;;;;;;;;5057907;28;19913;-79
2021/11/25 11:45:18;;;;;;;;;;;;;;;;;;5057998;28;20021;-78
2021/11/25 11:47:44;;;;;;;;;;;;;;;;;;5060127;28;19918;-78
2021/11/25 11:50:10;;;;;;;;;;;;;;;;;;5060505;28;19970;-78
2021/11/25 11:52:55;;;;;;;;;;;;;;;;;;5058267;28;20007;-77
2021/11/25 11:55:35;;;;;;;;;;;;;;;;;;5059861;28;20389;-77
2021/11/25 11:58:19;;;;;;;;;;;;;;;;;;5055229;28;19923;-77
2021/11/25 12:00:44;;;;;;;;;;;;;;;;;;5056930;28;20363;-77
2021/11/25 12:03:10;;;;;;;;;;;;;;;;;;5058004;28;19923;-75
2021/11/25 12:05:46;;;;;;;;;;;;;;;;;;5055999;28;19966;-76
2021/11/25 12:08:20;;;;;;;;;;;;;;;;;;5055544;28;19913;-75
2021/11/25 12:10:54;;;;;;;;;;;;;;;;;;5055278;28;19952;-76
2021/11/25 12:13:20;;;;;;;;;;;;;;;;;;5054785;28;20431;-75
2021/11/25 12:15:45;;;;;;;;;;;;;;;;;;5055625;28;19909;-75
2021/11/25 12:18:30;;;;;;;;;;;;;;;;;;5054609;28;20405;-75
2021/11/25 12:20:56;;;;;;;;;;;;;;;;;;5054032;28;19912;-75
2021/11/25 12:23:35;;;;;;;;;;;;;;;;;;5055425;28;19912;-75
2021/11/25 12:26:01;;;;;;;;;;;;;;;;;;5055208;28;19913;-75
2021/11/25 12:28:28;;;;;;;;;;;;;;;;;;5055485;28;19955;-76
2021/11/25 12:33:40;;;;;;;;;;;;;;;;;;5055285;28;20359;-76
2021/11/25 12:36:05;;;;;;;;;;;;;;;;;;5055128;28;19960;-75
2021/11/25 12:38:36;;;;;;;;;;;;;;;;;;5055070;28;19919;-76
2021/11/25 12:41:02;;;;;;;;;;;;;;;;;;5055073;28;20370;-75
2021/11/25 12:43:32;;;;;;;;;;;;;;;;;;5055096;28;19940;-76
2021/11/25 12:46:03;;;;;;;;;;;;;;;;;;5054765;28;19920;-75
2021/11/25 12:48:35;;;;;;;;;;;;;;;;;;5059110;28;19912;-75
2021/11/25 12:51:05;;;;;;;;;;;;;;;;;;5075031;28;19919;-76
2021/11/25 12:53:30;;;;;;;;;;;;;;;;;;5075015;28;20328;-76
2021/11/25 12:56:04;;;;;;;;;;;;;;;;;;5075155;28;19913;-77
2021/11/25 12:58:52;;;;;;;;;;;;;;;;;;5073289;28;19912;-76
2021/11/25 13:01:23;;;;;;;;;;;;;;;;;;5057680;28;19959;-75
2021/11/25 13:03:59;;;;;;;;;;;;;;;;;;5054488;28;19923;-75
2021/11/25 13:06:24;;;;;;;;;;;;;;;;;;5054569;28;19939;-75
2021/11/25 13:08:50;;;;;;;;;;;;;;;;;;5053417;28;19917;-75
2021/11/25 13:11:17;;;;;;;;;;;;;;;;;;5054473;28;19912;-75
2021/11/25 13:13:44;;;;;;;;;;;;;;;;;;5054484;28;19974;-75
2021/11/25 13:16:11;;;;;;;;;;;;;;;;;;5054537;28;19912;-75
2021/11/25 13:18:40;;;;;;;;;;;;;;;;;;5054418;28;19913;-75
2021/11/25 13:21:12;;;;;;;;;;;;;;;;;;5053791;28;19913;-75
2021/11/25 13:23:38;;;;;;;;;;;;;;;;;;5047686;28;19928;-75
2021/11/25 13:26:03;;;;;;;;;;;;;;;;;;5052837;28;19913;-75
2021/11/25 13:28:30;;;;;;;;;;;;;;;;;;5053041;28;19913;-75
2021/11/25 13:31:24;;;;;;;;;;;;;;;;;;5054225;28;20002;-75
2021/11/25 13:34:02;;;;;;;;;;;;;;;;;;5044856;28;19916;-75
2021/11/25 13:36:40;;;;;;;;;;;;;;;;;;5053962;28;19912;-75
2021/11/25 13:39:10;;;;;;;;;;;;;;;;;;5053175;28;19913;-75
2021/11/25 13:41:36;;;;;;;;;;;;;;;;;;5053785;28;19958;-75
2021/11/25 13:44:02;;;;;;;;;;;;;;;;;;5053758;28;19925;-75
2021/11/25 13:46:35;;;;;;;;;;;;;;;;;;5052471;28;19924;-75
2021/11/25 13:49:00;;;;;;;;;;;;;;;;;;5053711;28;19983;-75
2021/11/25 13:51:26;;;;;;;;;;;;;;;;;;5053709;28;19918;-75
2021/11/25 13:54:02;;;;;;;;;;;;;;;;;;5053797;28;19939;-75
2021/11/25 13:56:27;;;;;;;;;;;;;;;;;;5053461;28;19920;-75
2021/11/25 13:58:53;;;;;;;;;;;;;;;;;;5053800;28;19913;-75
2021/11/25 14:01:19;;;;;;;;;;;;;;;;;;5053567;28;19916;-75
2021/11/25 14:03:45;;;;;;;;;;;;;;;;;;5053546;28;20285;-75
2021/11/25 14:06:19;;;;;;;;;;;;;;;;;;5042760;28;19942;-76
2021/11/25 14:08:45;;;;;;;;;;;;;;;;;;5044361;28;19913;-76
2021/11/25 14:11:11;;;;;;;;;;;;;;;;;;5042967;28;19999;-76
2021/11/25 14:13:36;;;;;;;;;;;;;;;;;;5040560;28;19955;-76
2021/11/25 14:16:14;;;;;;;;;;;;;;;;;;5036283;28;19948;-76
2021/11/25 14:18:39;;;;;;;;;;;;;;;;;;5032127;28;20531;-76
2021/11/25 14:21:04;;;;;;;;;;;;;;;;;;5033875;28;19912;-75
2021/11/25 14:23:30;;;;;;;;;;;;;;;;;;5033542;28;19956;-76
2021/11/25 14:26:10;;;;;;;;;;;;;;;;;;5033500;28;19944;-76
2021/11/25 14:31:20;;;;;;;;;;;;;;;;;;5033557;28;19939;-76
2021/11/25 14:33:50;;;;;;;;;;;;;;;;;;5034851;28;20286;-76
2021/11/25 14:36:18;;;;;;;;;;;;;;;;;;5047592;28;19919;-77
2021/11/25 14:38:44;;;;;;;;;;;;;;;;;;5057515;28;19958;-76
2021/11/25 14:41:09;;;;;;;;;;;;;;;;;;5057426;28;19912;-77
2021/11/25 14:43:34;;;;;;;;;;;;;;;;;;5057207;28;19943;-76
2021/11/25 14:46:00;;;;;;;;;;;;;;;;;;5057346;28;19963;-77
2021/11/25 14:48:30;;;;;;;;;;;;;;;;;;5057292;28;20308;-76
2021/11/25 14:51:03;;;;;;;;;;;;;;;;;;5057350;28;19920;-76
2021/11/25 14:53:29;;;;;;;;;;;;;;;;;;5057201;28;20019;-77
2021/11/25 14:56:03;;;;;;;;;;;;;;;;;;5057030;28;19913;-77
2021/11/25 14:58:30;;;;;;;;;;;;;;;;;;5056068;28;19967;-76
2021/11/25 15:00:59;;;;;;;;;;;;;;;;;;5057169;28;19919;-76
2021/11/25 15:03:28;;;;;;;;;;;;;;;;;;5055968;28;19978;-76
2021/11/25 15:05:54;;;;;;;;;;;;;;;;;;5057081;28;19912;-76
2021/11/25 15:08:19;;;;;;;;;;;;;;;;;;5056614;28;19924;-77
2021/11/25 15:10:49;;;;;;;;;;;;;;;;;;5056389;28;20003;-77
2021/11/25 15:13:14;;;;;;;;;;;;;;;;;;5056566;28;20309;-77
2021/11/25 15:15:42;;;;;;;;;;;;;;;;;;5056725;28;19916;-76
2021/11/25 15:18:07;;;;;;;;;;;;;;;;;;5056568;28;20011;-77
2021/11/25 15:20:33;;;;;;;;;;;;;;;;;;5056669;28;19999;-77
2021/11/25 15:22:58;;;;;;;;;;;;;;;;;;5055535;28;19962;-77
2021/11/25 15:25:24;;;;;;;;;;;;;;;;;;5055608;28;20485;-77
2021/11/25 15:27:49;;;;;;;;;;;;;;;;;;5056741;28;19967;-76
2021/11/25 15:30:15;;;;;;;;;;;;;;;;;;5056710;28;20418;-76
2021/11/25 15:32:42;;;;;;;;;;;;;;;;;;5056643;28;19966;-76
2021/11/25 15:35:07;;;;;;;;;;;;;;;;;;5056459;28;20366;-77
2021/11/25 15:37:33;;;;;;;;;;;;;;;;;;5056311;28;19913;-77
2021/11/25 15:39:58;;;;;;;;;;;;;;;;;;5056238;28;19935;-76
2021/11/25 15:42:24;;;;;;;;;;;;;;;;;;5056375;28;20019;-76
2021/11/25 15:44:49;;;;;;;;;;;;;;;;;;5054936;28;19962;-77
2021/11/25 15:47:16;;;;;;;;;;;;;;;;;;5055763;28;19956;-77
2021/11/25 15:49:41;;;;;;;;;;;;;;;;;;5055374;28;19919;-76
2021/11/25 15:52:07;;;;;;;;;;;;;;;;;;5056021;28;19920;-77
2021/11/25 15:54:32;;;;;;;;;;;;;;;;;;5056130;28;19909;-77
2021/11/25 15:56:58;;;;;;;;;;;;;;;;;;5055918;28;20339;-77
2021/11/25 15:59:23;;;;;;;;;;;;;;;;;;5055905;28;19958;-76
2021/11/25 16:01:48;;;;;;;;;;;;;;;;;;5055705;28;20341;-77
2021/11/25 16:04:14;;;;;;;;;;;;;;;;;;5054743;28;19921;-77
2021/11/25 16:06:44;;;;;;;;;;;;;;;;;;5037517;28;19916;-76
2021/11/25 16:09:10;;;;;;;;;;;;;;;;;;5055566;28;19995;-77
2021/11/25 16:11:36;;;;;;;;;;;;;;;;;;5046048;28;19913;-76
2021/11/25 16:14:10;;;;;;;;;;;;;;;;;;5035650;28;20430;-77
2021/11/25 16:16:37;;;;;;;;;;;;;;;;;;5017732;28;19967;-77
2021/11/25 16:19:03;;;;;;;;;;;;;;;;;;5035416;28;20259;-78
2021/11/25 16:21:30;;;;;;;;;;;;;;;;;;5037554;28;19920;-77
2021/11/25 16:23:55;;;;;;;;;;;;;;;;;;5052018;28;19963;-77
2021/11/25 16:26:21;;;;;;;;;;;;;;;;;;5042739;28;19912;-77
2021/11/25 16:28:47;;;;;;;;;;;;;;;;;;5045726;28;19920;-76
2021/11/25 16:31:13;;;;;;;;;;;;;;;;;;5044547;28;19913;-76
2021/11/25 16:33:38;;;;;;;;;;;;;;;;;;5043656;28;19936;-77
2021/11/25 16:36:04;;;;;;;;;;;;;;;;;;5043404;28;19963;-77
2021/11/25 16:38:29;;;;;;;;;;;;;;;;;;5045593;28;19916;-76
2021/11/25 16:40:55;;;;;;;;;;;;;;;;;;5044748;28;19913;-77
2021/11/25 16:43:21;;;;;;;;;;;;;;;;;;5040171;28;19932;-76
2021/11/25 16:45:46;;;;;;;;;;;;;;;;;;5034740;28;19921;-77
2021/11/25 16:48:16;;;;;;;;;;;;;;;;;;5034703;28;19913;-76
2021/11/25 16:50:42;;;;;;;;;;;;;;;;;;5035230;28;19963;-76
2021/11/25 16:53:07;;;;;;;;;;;;;;;;;;5035138;28;19952;-76
2021/11/25 16:55:33;;;;;;;;;;;;;;;;;;5035016;28;19912;-75
2021/11/25 16:57:59;;;;;;;;;;;;;;;;;;5033341;28;19913;-75
2021/11/25 17:00:24;;;;;;;;;;;;;;;;;;5034855;28;19955;-77
2021/11/25 17:02:50;;;;;;;;;;;;;;;;;;5016953;28;20297;-78
2021/11/25 17:05:16;;;;;;;;;;;;;;;;;;5034403;28;20379;-78